sensor_id;sensor_type;location;lat;lon;timestamp;pressure;altitude;pressure_sealevel;temperature;humidity
74680;BME280;63211;48.548;2.704;2023-02-01T00:00:10;101933.28;;;18.24;42.33
74680;BME280;63211;48.548;2.704;2023-02-01T00:02:36;101935.81;;;18.25;42.51
74680;BME280;63211;48.548;2.704;2023-02-01T00:05:06;101935.63;;;18.27;42.20
74680;BME280;63211;48.548;2.704;2023-02-01T00:07:33;101942.78;;;18.28;41.93
74680;BME280;63211;48.548;2.704;2023-02-01T00:10:00;101936.47;;;18.27;41.56
74680;BME280;63211;48.548;2.704;2023-02-01T00:12:27;101939.41;;;18.26;41.80
74680;BME280;63211;48.548;2.704;2023-02-01T00:14:54;101928.69;;;18.24;41.66
74680;BME280;63211;48.548;2.704;2023-02-01T00:17:21;101936.22;;;18.22;41.71
74680;BME280;63211;48.548;2.704;2023-02-01T00:19:47;101930.94;;;18.20;41.82
74680;BME280;63211;48.548;2.704;2023-02-01T00:22:14;101927.56;;;18.18;41.77
74680;BME280;63211;48.548;2.704;2023-02-01T00:24:40;101928.63;;;18.17;41.60
74680;BME280;63211;48.548;2.704;2023-02-01T00:27:07;101933.41;;;18.15;41.76
74680;BME280;63211;48.548;2.704;2023-02-01T00:29:35;101933.97;;;18.11;42.04
74680;BME280;63211;48.548;2.704;2023-02-01T00:32:01;101937.81;;;18.16;41.78
74680;BME280;63211;48.548;2.704;2023-02-01T00:34:28;101939.31;;;18.19;41.79
74680;BME280;63211;48.548;2.704;2023-02-01T00:36:55;101934.53;;;18.21;42.00
74680;BME280;63211;48.548;2.704;2023-02-01T00:39:21;101943.53;;;18.22;42.44
74680;BME280;63211;48.548;2.704;2023-02-01T00:41:48;101934.53;;;18.21;42.41
74680;BME280;63211;48.548;2.704;2023-02-01T00:44:14;101943.34;;;18.23;42.78
74680;BME280;63211;48.548;2.704;2023-02-01T00:46:42;101934.97;;;18.25;42.58
74680;BME280;63211;48.548;2.704;2023-02-01T00:49:09;101927.66;;;18.25;42.83
74680;BME280;63211;48.548;2.704;2023-02-01T00:51:36;101934.78;;;18.26;42.51
74680;BME280;63211;48.548;2.704;2023-02-01T00:54:02;101931.88;;;18.28;42.61
74680;BME280;63211;48.548;2.704;2023-02-01T00:56:29;101937.09;;;18.29;42.80
74680;BME280;63211;48.548;2.704;2023-02-01T00:58:56;101930.84;;;18.29;42.13
74680;BME280;63211;48.548;2.704;2023-02-01T01:01:24;101935.44;;;18.28;42.20
74680;BME280;63211;48.548;2.704;2023-02-01T01:03:54;101929.34;;;18.26;42.16
74680;BME280;63211;48.548;2.704;2023-02-01T01:06:23;101925.97;;;18.24;42.24
74680;BME280;63211;48.548;2.704;2023-02-01T01:08:51;101925.97;;;18.24;42.30
74680;BME280;63211;48.548;2.704;2023-02-01T01:11:19;101923.25;;;18.24;42.29
74680;BME280;63211;48.548;2.704;2023-02-01T01:13:48;101929.06;;;18.21;42.01
74680;BME280;63211;48.548;2.704;2023-02-01T01:16:15;101934.72;;;18.19;42.35
74680;BME280;63211;48.548;2.704;2023-02-01T01:18:42;101932.19;;;18.18;42.13
74680;BME280;63211;48.548;2.704;2023-02-01T01:21:13;101927.56;;;18.18;42.16
74680;BME280;63211;48.548;2.704;2023-02-01T01:23:40;101927.38;;;18.20;42.04
74680;BME280;63211;48.548;2.704;2023-02-01T01:26:07;101921.75;;;18.22;42.55
74680;BME280;63211;48.548;2.704;2023-02-01T01:28:34;101915.25;;;18.23;42.59
74680;BME280;63211;48.548;2.704;2023-02-01T01:31:01;101916.28;;;18.22;43.28
74680;BME280;63211;48.548;2.704;2023-02-01T01:33:28;101925.97;;;18.24;43.39
74680;BME280;63211;48.548;2.704;2023-02-01T01:35:55;101933.09;;;18.25;43.41
74680;BME280;63211;48.548;2.704;2023-02-01T01:38:23;101930.19;;;18.27;43.65
74680;BME280;63211;48.548;2.704;2023-02-01T01:40:49;101934.78;;;18.26;43.66
74680;BME280;63211;48.548;2.704;2023-02-01T01:43:18;101933.75;;;18.27;43.50
74680;BME280;63211;48.548;2.704;2023-02-01T01:45:48;101941.50;;;18.30;43.29
74680;BME280;63211;48.548;2.704;2023-02-01T01:48:17;101943.22;;;18.31;43.11
74680;BME280;63211;48.548;2.704;2023-02-01T01:50:46;101946.97;;;18.30;42.61
74680;BME280;63211;48.548;2.704;2023-02-01T01:53:16;101939.81;;;18.29;42.23
74680;BME280;63211;48.548;2.704;2023-02-01T01:55:47;101950.72;;;18.29;42.61
74680;BME280;63211;48.548;2.704;2023-02-01T01:58:17;101936.47;;;18.27;42.39
74680;BME280;63211;48.548;2.704;2023-02-01T02:00:46;101948.41;;;18.26;42.38
74680;BME280;63211;48.548;2.704;2023-02-01T02:03:15;101941.28;;;18.25;42.77
74680;BME280;63211;48.548;2.704;2023-02-01T02:05:44;101940.63;;;18.23;42.15
74680;BME280;63211;48.548;2.704;2023-02-01T02:08:12;101942.69;;;18.21;42.47
74680;BME280;63211;48.548;2.704;2023-02-01T02:10:38;101942.91;;;18.19;42.80
74680;BME280;63211;48.548;2.704;2023-02-01T02:13:30;101935.38;;;18.22;42.37
74680;BME280;63211;48.548;2.704;2023-02-01T02:16:09;101936.03;;;18.24;42.69
74680;BME280;63211;48.548;2.704;2023-02-01T02:18:45;101932.06;;;18.26;43.00
74680;BME280;63211;48.548;2.704;2023-02-01T02:21:18;101942.13;;;18.26;43.31
74680;BME280;63211;48.548;2.704;2023-02-01T02:24:30;101931.03;;;18.27;43.30
74680;BME280;63211;48.548;2.704;2023-02-01T02:27:10;101927.25;;;18.28;43.46
74680;BME280;63211;48.548;2.704;2023-02-01T02:30:33;101937.94;;;18.30;43.40
74680;BME280;63211;48.548;2.704;2023-02-01T02:36:10;101941.13;;;18.33;42.96
74680;BME280;63211;48.548;2.704;2023-02-01T02:38:45;101941.13;;;18.33;43.18
74680;BME280;63211;48.548;2.704;2023-02-01T02:41:16;101935.69;;;18.33;42.88
74680;BME280;63211;48.548;2.704;2023-02-01T02:44:09;101939.44;;;18.32;42.53
74680;BME280;63211;48.548;2.704;2023-02-01T02:47:00;101936.06;;;18.30;42.43
74680;BME280;63211;48.548;2.704;2023-02-01T02:50:08;101931.88;;;18.28;42.76
74680;BME280;63211;48.548;2.704;2023-02-01T02:53:00;101940.06;;;18.28;42.30
74680;BME280;63211;48.548;2.704;2023-02-01T02:55:46;101945.03;;;18.24;41.98
74680;BME280;63211;48.548;2.704;2023-02-01T02:58:14;101942.50;;;18.23;42.72
74680;BME280;63211;48.548;2.704;2023-02-01T03:01:00;101940.81;;;18.22;42.87
74680;BME280;63211;48.548;2.704;2023-02-01T03:03:47;101936.03;;;18.24;42.74
74680;BME280;63211;48.548;2.704;2023-02-01T03:06:34;101928.50;;;18.26;42.81
74680;BME280;63211;48.548;2.704;2023-02-01T03:09:08;101922.84;;;18.27;43.02
74680;BME280;63211;48.548;2.704;2023-02-01T03:11:39;101915.50;;;18.28;43.44
74680;BME280;63211;48.548;2.704;2023-02-01T03:14:25;101918.88;;;18.30;43.62
74680;BME280;63211;48.548;2.704;2023-02-01T03:17:00;101918.88;;;18.30;43.49
74680;BME280;63211;48.548;2.704;2023-02-01T03:19:30;101914.25;;;18.30;43.46
74680;BME280;63211;48.548;2.704;2023-02-01T03:22:00;101920.34;;;18.32;43.27
74680;BME280;63211;48.548;2.704;2023-02-01T03:24:31;101923.94;;;18.33;43.41
74680;BME280;63211;48.548;2.704;2023-02-01T03:27:05;101925.41;;;18.35;43.21
74680;BME280;63211;48.548;2.704;2023-02-01T03:29:37;101931.72;;;18.36;42.82
74680;BME280;63211;48.548;2.704;2023-02-01T03:32:05;101930.03;;;18.35;42.56
74680;BME280;63211;48.548;2.704;2023-02-01T03:34:32;101932.94;;;18.33;42.45
74680;BME280;63211;48.548;2.704;2023-02-01T03:37:01;101926.00;;;18.31;42.37
74680;BME280;63211;48.548;2.704;2023-02-01T03:39:32;101922.66;;;18.29;42.57
74680;BME280;63211;48.548;2.704;2023-02-01T03:42:03;101928.31;;;18.27;42.53
74680;BME280;63211;48.548;2.704;2023-02-01T03:44:34;101920.13;;;18.27;42.46
74680;BME280;63211;48.548;2.704;2023-02-01T03:47:04;101926.81;;;18.25;42.53
74680;BME280;63211;48.548;2.704;2023-02-01T03:49:35;101938.56;;;18.25;42.48
74680;BME280;63211;48.548;2.704;2023-02-01T03:52:05;101952.19;;;18.25;42.72
74680;BME280;63211;48.548;2.704;2023-02-01T03:54:35;101952.00;;;18.27;42.51
74680;BME280;63211;48.548;2.704;2023-02-01T03:57:06;101945.50;;;18.28;43.13
74680;BME280;63211;48.548;2.704;2023-02-01T03:59:34;101939.81;;;18.29;43.46
74680;BME280;63211;48.548;2.704;2023-02-01T04:02:03;101931.66;;;18.29;43.33
74680;BME280;63211;48.548;2.704;2023-02-01T04:04:30;101945.09;;;18.31;43.61
74680;BME280;63211;48.548;2.704;2023-02-01T04:06:57;101953.06;;;18.32;43.57
74680;BME280;63211;48.548;2.704;2023-02-01T04:09:23;101952.03;;;18.33;43.63
74680;BME280;63211;48.548;2.704;2023-02-01T04:11:51;101953.72;;;18.34;43.61
74680;BME280;63211;48.548;2.704;2023-02-01T04:14:18;101951.66;;;18.36;43.75
74680;BME280;63211;48.548;2.704;2023-02-01T04:16:45;101953.34;;;18.37;43.62
74680;BME280;63211;48.548;2.704;2023-02-01T04:19:12;101941.41;;;18.38;43.22
74680;BME280;63211;48.548;2.704;2023-02-01T04:21:38;101939.50;;;18.39;42.80
74680;BME280;63211;48.548;2.704;2023-02-01T04:24:06;101943.28;;;18.38;42.43
74680;BME280;63211;48.548;2.704;2023-02-01T04:26:33;101927.31;;;18.35;42.66
74680;BME280;63211;48.548;2.704;2023-02-01T04:29:01;101946.13;;;18.30;42.81
74680;BME280;63211;48.548;2.704;2023-02-01T04:31:28;101944.47;;;18.29;42.82
74680;BME280;63211;48.548;2.704;2023-02-01T04:33:55;101940.63;;;18.23;42.80
74680;BME280;63211;48.548;2.704;2023-02-01T04:36:23;101942.97;;;18.26;42.62
74680;BME280;63211;48.548;2.704;2023-02-01T04:38:49;101938.38;;;18.27;42.49
74680;BME280;63211;48.548;2.704;2023-02-01T04:41:16;101932.44;;;18.23;42.59
74680;BME280;63211;48.548;2.704;2023-02-01T04:43:44;101930.38;;;18.25;42.74
74680;BME280;63211;48.548;2.704;2023-02-01T04:46:12;101940.91;;;18.28;43.01
74680;BME280;63211;48.548;2.704;2023-02-01T04:48:38;101934.19;;;18.31;43.34
74680;BME280;63211;48.548;2.704;2023-02-01T04:51:05;101943.00;;;18.33;43.52
74680;BME280;63211;48.548;2.704;2023-02-01T04:53:32;101948.47;;;18.33;43.49
74680;BME280;63211;48.548;2.704;2023-02-01T04:55:58;101943.84;;;18.33;43.65
74680;BME280;63211;48.548;2.704;2023-02-01T04:58:25;101943.66;;;18.35;43.41
74680;BME280;63211;48.548;2.704;2023-02-01T05:00:51;101954.56;;;18.35;43.76
74680;BME280;63211;48.548;2.704;2023-02-01T05:03:19;101946.19;;;18.36;43.89
74680;BME280;63211;48.548;2.704;2023-02-01T05:05:47;101944.13;;;18.38;43.88
74680;BME280;63211;48.548;2.704;2023-02-01T05:08:13;101942.03;;;18.40;43.62
74680;BME280;63211;48.548;2.704;2023-02-01T05:10:40;101935.75;;;18.40;43.43
74680;BME280;63211;48.548;2.704;2023-02-01T05:13:07;101930.28;;;18.40;42.95
74680;BME280;63211;48.548;2.704;2023-02-01T05:15:51;101927.97;;;18.37;42.75
74680;BME280;63211;48.548;2.704;2023-02-01T05:18:19;101936.53;;;18.34;42.81
74680;BME280;63211;48.548;2.704;2023-02-01T05:20:46;101943.22;;;18.31;42.72
74680;BME280;63211;48.548;2.704;2023-02-01T05:23:12;101958.09;;;18.29;42.76
74680;BME280;63211;48.548;2.704;2023-02-01T05:25:39;101947.38;;;18.27;42.81
74680;BME280;63211;48.548;2.704;2023-02-01T05:28:05;101944.84;;;18.26;42.81
74680;BME280;63211;48.548;2.704;2023-02-01T05:30:32;101951.34;;;18.25;42.78
74680;BME280;63211;48.548;2.704;2023-02-01T05:33:00;101953.22;;;18.24;42.95
74680;BME280;63211;48.548;2.704;2023-02-01T05:35:28;101941.94;;;18.27;42.90
74680;BME280;63211;48.548;2.704;2023-02-01T05:37:55;101937.75;;;18.31;43.54
74680;BME280;63211;48.548;2.704;2023-02-01T05:40:22;101954.75;;;18.33;43.65
74680;BME280;63211;48.548;2.704;2023-02-01T05:42:48;101955.59;;;18.34;43.81
74680;BME280;63211;48.548;2.704;2023-02-01T05:45:15;101951.84;;;18.35;43.80
74680;BME280;63211;48.548;2.704;2023-02-01T05:47:41;101952.69;;;18.35;43.94
74680;BME280;63211;48.548;2.704;2023-02-01T05:50:09;101955.22;;;18.37;43.91
74680;BME280;63211;48.548;2.704;2023-02-01T05:52:37;101953.34;;;18.37;43.82
74680;BME280;63211;48.548;2.704;2023-02-01T05:55:04;101964.31;;;18.44;43.55
74680;BME280;63211;48.548;2.704;2023-02-01T05:57:30;101974.78;;;18.40;42.47
74680;BME280;63211;48.548;2.704;2023-02-01T05:59:57;101982.50;;;18.37;42.92
74680;BME280;63211;48.548;2.704;2023-02-01T06:02:24;101987.47;;;18.33;43.40
74680;BME280;63211;48.548;2.704;2023-02-01T06:04:51;101992.28;;;18.31;43.53
74680;BME280;63211;48.548;2.704;2023-02-01T06:07:17;101998.16;;;18.28;43.94
74680;BME280;63211;48.548;2.704;2023-02-01T06:09:45;101987.25;;;18.28;44.17
74680;BME280;63211;48.548;2.704;2023-02-01T06:12:12;101982.16;;;18.25;43.80
74680;BME280;63211;48.548;2.704;2023-02-01T06:14:39;101977.09;;;18.22;43.67
74680;BME280;63211;48.548;2.704;2023-02-01T06:17:06;101986.69;;;18.18;44.77
74680;BME280;63211;48.548;2.704;2023-02-01T06:19:32;101978.25;;;18.13;45.39
74680;BME280;63211;48.548;2.704;2023-02-01T06:21:59;101980.50;;;18.09;44.88
74680;BME280;63211;48.548;2.704;2023-02-01T06:24:26;101980.25;;;18.04;46.88
74680;BME280;63211;48.548;2.704;2023-02-01T06:26:53;101998.13;;;18.07;45.71
74680;BME280;63211;48.548;2.704;2023-02-01T06:29:20;101998.97;;;18.07;46.86
74680;BME280;63211;48.548;2.704;2023-02-01T06:31:47;101999.88;;;18.14;47.91
74680;BME280;63211;48.548;2.704;2023-02-01T06:34:13;102003.44;;;18.15;46.98
74680;BME280;63211;48.548;2.704;2023-02-01T06:36:40;102005.59;;;18.19;47.44
74680;BME280;63211;48.548;2.704;2023-02-01T06:39:06;102014.81;;;18.18;46.20
74680;BME280;63211;48.548;2.704;2023-02-01T06:41:33;102017.34;;;18.20;46.54
74680;BME280;63211;48.548;2.704;2023-02-01T06:44:01;102006.44;;;18.20;46.50
74680;BME280;63211;48.548;2.704;2023-02-01T06:46:28;102006.25;;;18.22;46.49
74680;BME280;63211;48.548;2.704;2023-02-01T06:48:54;102008.97;;;18.22;46.39
74680;BME280;63211;48.548;2.704;2023-02-01T06:51:23;102010.66;;;18.23;47.01
74680;BME280;63211;48.548;2.704;2023-02-01T06:53:50;102011.69;;;18.22;48.21
74680;BME280;63211;48.548;2.704;2023-02-01T06:56:17;102003.06;;;18.18;48.88
74680;BME280;63211;48.548;2.704;2023-02-01T06:58:44;101999.00;;;18.14;48.57
74680;BME280;63211;48.548;2.704;2023-02-01T07:01:13;102003.34;;;18.08;48.61
74680;BME280;63211;48.548;2.704;2023-02-01T07:03:40;102007.34;;;18.06;48.54
74680;BME280;63211;48.548;2.704;2023-02-01T07:06:07;101997.00;;;18.01;48.21
74680;BME280;63211;48.548;2.704;2023-02-01T07:08:35;102005.38;;;18.00;48.23
74680;BME280;63211;48.548;2.704;2023-02-01T07:11:03;102018.53;;;17.96;48.26
74680;BME280;63211;48.548;2.704;2023-02-01T07:13:29;102018.72;;;17.95;47.99
74680;BME280;63211;48.548;2.704;2023-02-01T07:15:58;102016.16;;;17.93;48.01
74680;BME280;63211;48.548;2.704;2023-02-01T07:18:26;102006.31;;;17.92;47.46
74680;BME280;63211;48.548;2.704;2023-02-01T07:20:54;102007.25;;;17.99;47.16
74680;BME280;63211;48.548;2.704;2023-02-01T07:23:20;102006.03;;;18.02;46.77
74680;BME280;63211;48.548;2.704;2023-02-01T07:25:47;102008.56;;;18.03;46.97
74680;BME280;63211;48.548;2.704;2023-02-01T07:28:14;102010.91;;;18.06;46.88
74680;BME280;63211;48.548;2.704;2023-02-01T07:30:41;102006.28;;;18.07;47.00
74680;BME280;63211;48.548;2.704;2023-02-01T07:33:07;102012.59;;;18.07;46.94
74680;BME280;63211;48.548;2.704;2023-02-01T07:35:35;102022.44;;;18.08;46.91
74680;BME280;63211;48.548;2.704;2023-02-01T07:38:02;102022.25;;;18.10;47.06
74680;BME280;63211;48.548;2.704;2023-02-01T07:40:28;102022.06;;;18.11;46.97
74680;BME280;63211;48.548;2.704;2023-02-01T07:42:55;102018.28;;;18.12;46.83
74680;BME280;63211;48.548;2.704;2023-02-01T07:45:22;102026.66;;;18.11;47.25
74680;BME280;63211;48.548;2.704;2023-02-01T07:47:50;102029.31;;;18.04;47.25
74680;BME280;63211;48.548;2.704;2023-02-01T07:50:17;102032.25;;;18.03;47.54
74680;BME280;63211;48.548;2.704;2023-02-01T07:52:45;102038.91;;;18.00;47.42
74680;BME280;63211;48.548;2.704;2023-02-01T07:55:12;102049.34;;;17.97;47.48
74680;BME280;63211;48.548;2.704;2023-02-01T07:57:38;102056.00;;;17.94;47.48
74680;BME280;63211;48.548;2.704;2023-02-01T08:00:06;102052.81;;;17.91;47.60
74680;BME280;63211;48.548;2.704;2023-02-01T08:02:50;102065.22;;;17.93;47.71
74680;BME280;63211;48.548;2.704;2023-02-01T08:05:16;102057.88;;;17.94;46.44
74680;BME280;63211;48.548;2.704;2023-02-01T08:07:48;102066.91;;;17.94;46.50
74680;BME280;63211;48.548;2.704;2023-02-01T08:10:15;102066.34;;;17.99;47.63
74680;BME280;63211;48.548;2.704;2023-02-01T08:12:42;102069.53;;;18.02;48.61
74680;BME280;63211;48.548;2.704;2023-02-01T08:15:13;102073.78;;;18.05;48.23
74680;BME280;63211;48.548;2.704;2023-02-01T08:17:39;102074.44;;;18.07;47.74
74680;BME280;63211;48.548;2.704;2023-02-01T08:20:07;102079.66;;;18.08;47.66
74680;BME280;63211;48.548;2.704;2023-02-01T08:22:33;102077.59;;;18.10;47.57
74680;BME280;63211;48.548;2.704;2023-02-01T08:25:01;102075.53;;;18.12;47.42
74680;BME280;63211;48.548;2.704;2023-02-01T08:27:28;102073.66;;;18.13;47.36
74680;BME280;63211;48.548;2.704;2023-02-01T08:29:55;102060.22;;;18.11;47.18
74680;BME280;63211;48.548;2.704;2023-02-01T08:32:22;102067.63;;;18.17;46.84
74680;BME280;63211;48.548;2.704;2023-02-01T08:34:48;102071.00;;;18.19;46.82
74680;BME280;63211;48.548;2.704;2023-02-01T08:37:15;102068.94;;;18.22;46.52
74680;BME280;63211;48.548;2.704;2023-02-01T08:39:41;102063.50;;;18.22;46.28
74680;BME280;63211;48.548;2.704;2023-02-01T08:42:11;102051.75;;;18.21;45.97
74680;BME280;63211;48.548;2.704;2023-02-01T08:44:55;102058.41;;;18.18;45.89
74680;BME280;63211;48.548;2.704;2023-02-01T08:47:22;102051.47;;;18.16;45.87
74680;BME280;63211;48.548;2.704;2023-02-01T08:49:49;102053.53;;;18.14;45.78
74680;BME280;63211;48.548;2.704;2023-02-01T08:52:16;102047.41;;;18.12;45.86
74680;BME280;63211;48.548;2.704;2023-02-01T08:54:43;102049.50;;;18.10;45.90
74680;BME280;63211;48.548;2.704;2023-02-01T08:57:11;102053.25;;;18.09;45.67
74680;BME280;63211;48.548;2.704;2023-02-01T08:59:38;102053.72;;;18.12;45.57
74680;BME280;63211;48.548;2.704;2023-02-01T09:02:05;102046.19;;;18.14;45.50
74680;BME280;63211;48.548;2.704;2023-02-01T09:04:31;102030.50;;;18.16;45.30
74680;BME280;63211;48.548;2.704;2023-02-01T09:06:58;102024.22;;;18.16;45.46
74680;BME280;63211;48.548;2.704;2023-02-01T09:09:27;102029.66;;;18.16;45.39
74680;BME280;63211;48.548;2.704;2023-02-01T09:11:54;102042.72;;;18.20;45.19
74680;BME280;63211;48.548;2.704;2023-02-01T09:14:22;102048.44;;;18.26;45.77
74680;BME280;63211;48.548;2.704;2023-02-01T09:16:48;102050.56;;;18.30;45.56
74680;BME280;63211;48.548;2.704;2023-02-01T09:19:15;102043.69;;;18.34;45.67
74680;BME280;63211;48.548;2.704;2023-02-01T09:21:41;102044.81;;;18.40;45.58
74680;BME280;63211;48.548;2.704;2023-02-01T09:24:09;102042.38;;;18.45;45.59
74680;BME280;63211;48.548;2.704;2023-02-01T09:26:36;102041.56;;;18.51;45.45
74680;BME280;63211;48.548;2.704;2023-02-01T09:29:06;102050.22;;;18.54;45.07
74680;BME280;63211;48.548;2.704;2023-02-01T09:31:38;102053.25;;;18.60;44.77
74680;BME280;63211;48.548;2.704;2023-02-01T09:34:05;102055.41;;;18.64;44.18
74680;BME280;63211;48.548;2.704;2023-02-01T09:36:33;102057.75;;;18.67;44.50
74680;BME280;63211;48.548;2.704;2023-02-01T09:39:00;102056.28;;;18.71;44.18
74680;BME280;63211;48.548;2.704;2023-02-01T09:41:38;102063.03;;;18.75;44.29
74680;BME280;63211;48.548;2.704;2023-02-01T09:44:19;102077.16;;;18.79;44.47
74680;BME280;63211;48.548;2.704;2023-02-01T09:46:54;102078.44;;;18.83;44.35
74680;BME280;63211;48.548;2.704;2023-02-01T09:49:27;102081.84;;;18.85;44.28
74680;BME280;63211;48.548;2.704;2023-02-01T09:51:55;102088.59;;;18.89;44.04
74680;BME280;63211;48.548;2.704;2023-02-01T09:54:25;102093.22;;;18.88;44.23
74680;BME280;63211;48.548;2.704;2023-02-01T09:56:56;102100.78;;;18.93;44.27
74680;BME280;63211;48.548;2.704;2023-02-01T09:59:30;102111.31;;;18.96;44.12
74680;BME280;63211;48.548;2.704;2023-02-01T10:02:02;102120.63;;;19.02;44.09
74680;BME280;63211;48.548;2.704;2023-02-01T10:04:29;102118.34;;;19.05;44.12
74680;BME280;63211;48.548;2.704;2023-02-01T10:07:10;102117.63;;;18.97;44.62
74680;BME280;63211;48.548;2.704;2023-02-01T10:09:47;102115.53;;;18.99;44.36
74680;BME280;63211;48.548;2.704;2023-02-01T10:15:19;102114.38;;;18.86;45.19
74680;BME280;63211;48.548;2.704;2023-02-01T10:18:00;102117.50;;;18.83;44.77
74680;BME280;63211;48.548;2.704;2023-02-01T10:20:43;102125.03;;;18.81;44.89
74680;BME280;63211;48.548;2.704;2023-02-01T10:23:27;102125.03;;;18.81;44.86
74680;BME280;63211;48.548;2.704;2023-02-01T10:26:03;102124.19;;;18.81;45.01
74680;BME280;63211;48.548;2.704;2023-02-01T10:28:36;102120.81;;;18.79;44.96
74680;BME280;63211;48.548;2.704;2023-02-01T10:31:05;102123.06;;;18.75;44.93
74680;BME280;63211;48.548;2.704;2023-02-01T10:33:39;102116.78;;;18.75;44.89
74680;BME280;63211;48.548;2.704;2023-02-01T10:36:14;102118.41;;;18.69;45.00
74680;BME280;63211;48.548;2.704;2023-02-01T10:38:43;102111.44;;;18.67;45.06
74680;BME280;63211;48.548;2.704;2023-02-01T10:41:13;102105.63;;;18.70;44.89
74680;BME280;63211;48.548;2.704;2023-02-01T10:43:41;102109.81;;;18.72;44.42
74680;BME280;63211;48.548;2.704;2023-02-01T10:46:08;102117.63;;;18.75;44.48
74680;BME280;63211;48.548;2.704;2023-02-01T10:48:37;102110.28;;;18.76;44.03
74680;BME280;63211;48.548;2.704;2023-02-01T10:51:09;102107.34;;;18.77;43.90
74680;BME280;63211;48.548;2.704;2023-02-01T10:53:42;102101.69;;;18.79;43.60
74680;BME280;63211;48.548;2.704;2023-02-01T10:56:11;102100.84;;;18.78;43.72
74680;BME280;63211;48.548;2.704;2023-02-01T10:58:43;102097.09;;;18.79;43.71
74680;BME280;63211;48.548;2.704;2023-02-01T11:01:16;102102.56;;;18.79;43.59
74680;BME280;63211;48.548;2.704;2023-02-01T11:03:52;102080.06;;;18.77;43.81
74680;BME280;63211;48.548;2.704;2023-02-01T11:06:25;102082.59;;;18.79;43.53
74680;BME280;63211;48.548;2.704;2023-02-01T11:08:55;102072.72;;;18.78;43.80
74680;BME280;63211;48.548;2.704;2023-02-01T11:11:24;102069.72;;;18.73;43.34
74680;BME280;63211;48.548;2.704;2023-02-01T11:13:53;102067.00;;;18.73;43.46
74680;BME280;63211;48.548;2.704;2023-02-01T11:16:20;102065.53;;;18.70;42.99
74680;BME280;63211;48.548;2.704;2023-02-01T11:18:53;102052.94;;;18.69;43.25
74680;BME280;63211;48.548;2.704;2023-02-01T11:21:20;102054.34;;;18.65;43.49
74680;BME280;63211;48.548;2.704;2023-02-01T11:23:47;102049.09;;;18.64;43.47
74680;BME280;63211;48.548;2.704;2023-02-01T11:26:20;102046.56;;;18.62;43.52
74680;BME280;63211;48.548;2.704;2023-02-01T11:28:52;102050.50;;;18.60;43.61
74680;BME280;63211;48.548;2.704;2023-02-01T11:31:20;102051.72;;;18.57;43.54
74680;BME280;63211;48.548;2.704;2023-02-01T11:33:51;102044.09;;;18.52;43.79
74680;BME280;63211;48.548;2.704;2023-02-01T11:36:23;102048.34;;;18.55;43.64
74680;BME280;63211;48.548;2.704;2023-02-01T11:38:54;102057.75;;;18.52;45.56
74680;BME280;63211;48.548;2.704;2023-02-01T11:41:23;102050.34;;;18.46;48.07
74680;BME280;63211;48.548;2.704;2023-02-01T11:43:52;102051.78;;;18.42;49.07
74680;BME280;63211;48.548;2.704;2023-02-01T11:46:23;102047.75;;;18.38;48.24
74680;BME280;63211;48.548;2.704;2023-02-01T11:48:54;102044.53;;;18.35;50.50
74680;BME280;63211;48.548;2.704;2023-02-01T11:51:34;102045.34;;;18.29;51.58
74680;BME280;63211;48.548;2.704;2023-02-01T11:54:25;102048.81;;;18.23;52.91
74680;BME280;63211;48.548;2.704;2023-02-01T11:57:07;102049.59;;;18.16;53.95
74680;BME280;63211;48.548;2.704;2023-02-01T11:59:52;102050.34;;;18.10;55.02
74680;BME280;63211;48.548;2.704;2023-02-01T12:02:46;102036.91;;;18.09;55.71
74680;BME280;63211;48.548;2.704;2023-02-01T12:05:27;102041.25;;;18.03;56.15
74680;BME280;63211;48.548;2.704;2023-02-01T12:08:14;102048.13;;;17.99;57.03
74680;BME280;63211;48.548;2.704;2023-02-01T12:10:54;102055.63;;;17.97;57.01
74680;BME280;63211;48.548;2.704;2023-02-01T12:13:33;102056.66;;;17.96;57.34
74680;BME280;63211;48.548;2.704;2023-02-01T12:16:17;102050.56;;;17.94;57.72
74680;BME280;63211;48.548;2.704;2023-02-01T12:21:57;102019.28;;;17.90;58.83
74680;BME280;63211;48.548;2.704;2023-02-01T12:24:42;102022.41;;;17.87;59.60
74680;BME280;63211;48.548;2.704;2023-02-01T12:27:29;102010.00;;;17.84;59.05
74680;BME280;63211;48.548;2.704;2023-02-01T12:30:14;102009.34;;;17.82;59.63
74680;BME280;63211;48.548;2.704;2023-02-01T12:32:53;101998.63;;;17.81;59.74
74680;BME280;63211;48.548;2.704;2023-02-01T12:35:38;101983.50;;;17.78;59.96
74680;BME280;63211;48.548;2.704;2023-02-01T12:38:49;101992.53;;;17.79;60.41
74680;BME280;63211;48.548;2.704;2023-02-01T12:41:38;101988.31;;;17.76;60.66
74680;BME280;63211;48.548;2.704;2023-02-01T12:44:27;101982.56;;;17.71;61.13
74680;BME280;63211;48.548;2.704;2023-02-01T12:47:06;101979.00;;;17.71;60.89
74680;BME280;63211;48.548;2.704;2023-02-01T12:49:47;101985.97;;;17.73;60.58
74680;BME280;63211;48.548;2.704;2023-02-01T12:52:27;101989.81;;;17.79;58.95
74680;BME280;63211;48.548;2.704;2023-02-01T12:54:59;101993.00;;;17.82;58.32
74680;BME280;63211;48.548;2.704;2023-02-01T12:57:32;101993.66;;;17.84;57.39
74680;BME280;63211;48.548;2.704;2023-02-01T13:00:06;101992.44;;;17.87;56.66
74680;BME280;63211;48.548;2.704;2023-02-01T13:02:39;102000.19;;;17.90;55.88
74680;BME280;63211;48.548;2.704;2023-02-01T13:05:17;101996.06;;;17.94;55.81
74680;BME280;63211;48.548;2.704;2023-02-01T13:07:49;102001.03;;;17.91;57.26
74680;BME280;63211;48.548;2.704;2023-02-01T13:10:24;102000.81;;;17.85;57.75
74680;BME280;63211;48.548;2.704;2023-02-01T13:13:00;101996.94;;;17.80;57.91
74680;BME280;63211;48.548;2.704;2023-02-01T13:15:30;101985.78;;;17.75;58.85
74680;BME280;63211;48.548;2.704;2023-02-01T13:18:02;101974.03;;;17.74;59.19